Главная страница
METAR-TAF:

METAR-TAF

Аэропорты :

Сибиу, Румыния

широта: 45-48N, долгота: 024-09E, высота над уровнем моря: 443 м

Текущие метеонаблюдения

Эта сводка был подготовлена 32 минут назад, в 20:30 UTC
Штиль
Температура 19°C
Влажность 83%
Давление 1017 hPa
Видимость 10 км и более
Нет облачности ниже 1500 м, и нет кучево-дождевой облачности

METAR: LRSB 202030Z 00000KT CAVOK 19/16 Q1017 NOSIG

Время: 00:02 (21:02 UTC)

Прогноз

Эта сводка был подготовлена 4 часа и 2 минут назад, в 17:00 UTC
Прогноз действительный с 20-го 18 UTC до 21-го 18 UTC
Ветер 4 Узел переменных направлений
Видимость 10 км и более
Нет облачности ниже 1500 м, и нет кучево-дождевой облачности
временами
С 21-го 11 UTC до 21-го 16 UTC
небольшая облачность на высоте 5000 фута, Кучево-дождевые.

TAF: LRSB 201700Z 2018/2118 VRB04KT CAVOK TEMPO 2111/2116 FEW050CB

Метеонаблюдения и прогнозы для более 4000 аэропортов (сводки METAR и TAF).

Имеющиеся станции представлены на карте желтыми и красными точками.

Чтобы увидеть название станции, наведите на нее мышь.

Затем щелкните, чтобы увидеть метеонаблюдения и метеопрогнозы.

Управление картой: чтобы увеличить масштаб, щелкните зеленые кнопки с черным крестиком; чтобы уменьшить масштаб, щелкните зеленую кнопку с тире; для просмотра соседних карт щелкайте зеленые стрелки.


METAR-TAF: